Time;durP1;ratioP1;P1;durP2;ratioP2;P2;SDS_P1;SDS_P2;PMS_P1;PMS_P2;Temp;Humidity;BMP_temperature;BMP_pressure;BME280_temperature;BME280_humidity;BME280_pressure;Samples;Min_cycle;Max_cycle;Signal;HPM_P1;HPM_P2
2022/01/22 00:00:41;;;;;;;29.92;5.03;;;6.40;99.90;;;;;;4934583;28;20058;-73
2022/01/22 00:03:07;;;;;;;33.72;4.68;;;6.40;99.90;;;;;;4933551;28;20058;-73
2022/01/22 00:05:34;;;;;;;27.27;4.68;;;6.40;99.90;;;;;;4937512;28;20055;-73
2022/01/22 00:08:00;;;;;;;31.85;4.57;;;6.40;99.90;;;;;;4951720;28;20047;-73
2022/01/22 00:10:26;;;;;;;27.75;4.25;;;6.40;99.90;;;;;;4951940;28;20039;-72
2022/01/22 00:15:29;;;;;;;28.60;4.18;;;6.40;99.90;;;;;;4934295;28;20040;-72
2022/01/22 00:17:56;;;;;;;22.02;3.90;;;6.50;99.90;;;;;;4951648;28;20676;-72
2022/01/22 00:20:25;;;;;;;34.05;3.97;;;6.40;99.90;;;;;;4952951;28;20039;-73
2022/01/22 00:22:51;;;;;;;30.73;4.13;;;6.50;99.90;;;;;;4955892;28;20046;-72
2022/01/22 00:25:19;;;;;;;22.77;4.13;;;6.50;99.90;;;;;;4937593;28;20071;-73
2022/01/22 00:27:47;;;;;;;33.97;4.00;;;6.40;99.90;;;;;;4953394;28;20136;-72
2022/01/22 00:30:18;;;;;;;20.48;3.90;;;6.50;99.90;;;;;;4932682;28;20035;-72
2022/01/22 00:32:44;;;;;;;22.60;3.50;;;6.40;99.90;;;;;;4939146;28;20047;-72
2022/01/22 00:35:10;;;;;;;21.48;3.33;;;6.50;99.90;;;;;;4936157;28;20035;-72
2022/01/22 00:37:38;;;;;;;20.50;3.13;;;6.50;99.90;;;;;;4952979;28;20050;-72
2022/01/22 00:40:04;;;;;;;27.77;4.10;;;6.60;99.90;;;;;;4956370;28;20051;-73
2022/01/22 00:42:32;;;;;;;27.67;4.10;;;6.50;99.90;;;;;;4938062;28;20046;-73
2022/01/22 00:44:58;;;;;;;29.02;4.35;;;6.50;99.90;;;;;;4939864;28;20042;-73
2022/01/22 00:47:24;;;;;;;26.00;4.15;;;6.50;99.90;;;;;;4934566;28;20048;-72
2022/01/22 00:49:49;;;;;;;25.52;3.97;;;6.50;99.90;;;;;;4936071;28;20038;-73
2022/01/22 00:52:15;;;;;;;35.35;4.65;;;6.60;99.90;;;;;;4947248;28;20122;-73
2022/01/22 00:54:41;;;;;;;28.55;4.30;;;6.50;99.90;;;;;;4937265;29;20039;-73
2022/01/22 00:57:07;;;;;;;20.95;3.70;;;6.50;99.90;;;;;;4949877;28;20506;-72
2022/01/22 00:59:32;;;;;;;26.05;3.40;;;6.60;99.90;;;;;;4948672;28;20128;-73
2022/01/22 01:01:59;;;;;;;34.80;4.90;;;6.60;99.90;;;;;;4935953;28;20078;-72
2022/01/22 01:04:27;;;;;;;32.40;4.13;;;6.60;99.90;;;;;;4951325;28;20094;-73
2022/01/22 01:06:53;;;;;;;28.90;3.90;;;6.60;99.90;;;;;;4931708;29;20069;-73
2022/01/22 01:09:19;;;;;;;23.05;3.53;;;6.60;99.90;;;;;;4929019;28;20558;-73
2022/01/22 01:11:49;;;;;;;38.22;4.38;;;6.60;99.90;;;;;;4935720;28;20110;-73
2022/01/22 01:14:22;;;;;;;24.60;4.03;;;6.60;99.90;;;;;;4937409;28;20183;-73
2022/01/22 01:33:16;;;;;;;23.20;3.75;;;6.60;99.90;;;;;;4931433;28;20051;-73
2022/01/22 01:35:41;;;;;;;36.85;4.30;;;6.60;99.90;;;;;;4915894;28;20057;-73
2022/01/22 01:38:08;;;;;;;36.60;4.22;;;6.60;99.90;;;;;;4947048;28;20043;-72
2022/01/22 01:40:38;;;;;;;42.35;5.43;;;6.50;99.90;;;;;;4931375;28;20071;-73
2022/01/22 01:43:37;;;;;;;42.72;5.20;;;6.60;99.90;;;;;;4933110;28;20043;-73
2022/01/22 01:45:56;;;;;;;31.38;4.50;;;6.60;99.90;;;;;;4930574;28;20055;-72
2022/01/22 01:48:26;;;;;;;30.38;4.50;;;6.60;99.90;;;;;;4947246;28;20417;-72
2022/01/22 01:50:52;;;;;;;33.17;4.60;;;6.60;99.90;;;;;;4932258;28;20043;-73
2022/01/22 01:53:41;;;;;;;31.92;4.68;;;6.60;99.90;;;;;;4932312;28;21513;-73
2022/01/22 01:57:24;;;;;;;32.05;4.00;;;6.60;99.90;;;;;;4946617;28;20074;-73
2022/01/22 01:58:49;;;;;;;38.50;4.65;;;6.60;99.90;;;;;;4928923;28;20044;-74
2022/01/22 02:01:15;;;;;;;40.70;4.38;;;6.60;99.90;;;;;;4930921;28;20094;-73
2022/01/22 02:03:40;;;;;;;36.33;4.05;;;6.60;99.90;;;;;;4915215;28;20442;-73
2022/01/22 02:06:06;;;;;;;31.40;4.43;;;6.60;99.90;;;;;;4930729;28;20034;-74
2022/01/22 02:08:31;;;;;;;29.30;4.60;;;6.70;99.90;;;;;;4933165;28;20449;-73
2022/01/22 02:11:00;;;;;;;28.20;3.78;;;6.60;99.90;;;;;;4930257;28;20057;-73
2022/01/22 02:24:49;;;;;;;30.70;4.30;;;6.50;99.90;;;;;;4933929;28;20493;-73
2022/01/22 02:27:15;;;;;;;25.33;4.28;;;6.60;99.90;;;;;;4901752;28;20047;-73
2022/01/22 02:29:40;;;;;;;23.77;4.90;;;6.50;99.90;;;;;;4932010;28;20048;-73
2022/01/22 02:32:43;;;;;;;27.40;4.10;;;6.50;99.90;;;;;;4931919;28;20035;-74
2022/01/22 02:35:14;;;;;;;21.92;3.92;;;6.50;99.90;;;;;;4931805;28;20127;-73
2022/01/22 02:37:46;;;;;;;28.73;4.22;;;6.50;99.90;;;;;;4933509;28;20032;-73
2022/01/22 02:40:20;;;;;;;23.92;4.68;;;6.60;99.90;;;;;;4917809;28;20130;-73
2022/01/22 02:42:46;;;;;;;21.70;4.03;;;6.60;99.90;;;;;;4933935;28;20067;-73
2022/01/22 02:45:17;;;;;;;23.92;4.20;;;6.60;99.90;;;;;;4947207;28;20122;-73
2022/01/22 02:47:43;;;;;;;15.30;3.45;;;6.60;99.90;;;;;;4947303;28;20059;-73
2022/01/22 02:50:09;;;;;;;21.83;4.75;;;6.60;99.90;;;;;;4946981;28;20046;-73
2022/01/22 02:52:35;;;;;;;17.77;3.70;;;6.60;99.90;;;;;;4918863;28;20039;-73
2022/01/22 02:55:03;;;;;;;19.38;4.03;;;6.60;99.90;;;;;;4947656;28;20050;-73
2022/01/22 02:57:32;;;;;;;20.80;3.38;;;6.70;99.90;;;;;;4948071;28;20034;-74
2022/01/22 02:59:59;;;;;;;20.85;3.25;;;6.70;99.90;;;;;;4929320;28;20081;-73
2022/01/22 03:02:25;;;;;;;16.60;2.50;;;6.60;99.90;;;;;;4932124;28;20047;-73
2022/01/22 03:04:50;;;;;;;16.58;2.92;;;6.70;99.90;;;;;;4930863;28;20039;-73
2022/01/22 03:07:16;;;;;;;16.25;2.55;;;6.70;99.90;;;;;;4932396;28;20070;-73
2022/01/22 03:09:45;;;;;;;18.23;2.65;;;6.70;99.90;;;;;;4930980;28;20043;-73
2022/01/22 03:27:49;;;;;;;14.52;2.58;;;6.70;99.90;;;;;;4927004;28;20051;-73
2022/01/22 03:30:15;;;;;;;15.50;2.78;;;6.60;99.90;;;;;;4945003;28;20037;-73
2022/01/22 03:32:45;;;;;;;13.35;2.55;;;6.60;99.90;;;;;;4941586;28;20032;-74
2022/01/22 03:37:44;;;;;;;17.88;3.05;;;6.60;99.90;;;;;;4931333;28;20110;-73
2022/01/22 03:40:13;;;;;;;12.10;2.60;;;6.60;99.90;;;;;;4946119;28;20050;-73
2022/01/22 03:42:39;;;;;;;13.48;2.60;;;6.60;99.90;;;;;;4927445;28;20039;-73
2022/01/22 03:45:08;;;;;;;12.50;2.55;;;6.60;99.90;;;;;;4945013;28;20082;-72
2022/01/22 03:47:35;;;;;;;14.93;2.65;;;6.60;99.90;;;;;;4947576;28;20051;-73
2022/01/22 03:50:01;;;;;;;15.05;2.92;;;6.60;99.90;;;;;;4945148;28;20102;-73
2022/01/22 03:52:26;;;;;;;14.63;2.47;;;6.60;99.90;;;;;;4928686;28;20031;-73
2022/01/22 03:54:52;;;;;;;10.32;2.47;;;6.70;99.90;;;;;;4914162;28;20047;-73
2022/01/22 03:57:18;;;;;;;9.23;2.50;;;6.70;99.90;;;;;;4914889;28;20134;-73
2022/01/22 03:59:45;;;;;;;14.48;2.90;;;6.70;99.90;;;;;;4946731;28;20142;-73
2022/01/22 04:04:41;;;;;;;9.18;2.40;;;6.70;99.90;;;;;;4948342;28;20041;-73
2022/01/22 04:07:39;;;;;;;10.35;2.88;;;6.60;99.90;;;;;;4946958;28;20043;-73
2022/01/22 04:09:59;;;;;;;8.45;2.53;;;6.60;99.90;;;;;;4945570;28;20051;-73
2022/01/22 04:13:03;;;;;;;7.00;2.70;;;6.60;99.90;;;;;;4946092;28;20039;-73
2022/01/22 04:15:21;;;;;;;9.75;2.80;;;6.60;99.90;;;;;;4927678;28;20425;-73
2022/01/22 04:36:39;;;;;;;;;;;;;;;;;;;;;
2022/01/22 04:40:35;;;;;;;7.28;2.53;;;6.60;99.90;;;;;;4935084;29;20051;-77
2022/01/22 06:02:56;;;;;;;16.48;2.88;;;6.60;99.90;;;;;;4900364;29;20059;-77
2022/01/22 06:18:11;;;;;;;14.32;3.65;;;6.60;99.90;;;;;;4777721;29;20062;-77
2022/01/22 06:24:11;;;;;;;14.90;3.75;;;6.50;99.90;;;;;;4811873;29;19936;-78
2022/01/22 06:51:27;;;;;;;15.35;4.38;;;6.50;99.90;;;;;;5020683;23;20059;-78
2022/01/22 07:31:10;;;;;;;7.90;2.55;;;6.50;99.90;;;;;;4978114;28;20473;-77
2022/01/22 07:44:07;;;;;;;;;;;;;;;;;;;;;
2022/01/22 07:47:19;;;;;;;6.10;2.25;;;6.60;99.90;;;;;;4907063;29;20044;-77
2022/01/22 07:50:59;;;;;;;7.80;2.33;;;6.50;99.90;;;;;;4867417;29;20045;-77
2022/01/22 07:53:58;;;;;;;;;;;6.60;99.90;;;;;;4882873;29;20097;-78
2022/01/22 08:02:55;;;;;;;8.20;2.17;;;6.40;99.90;;;;;;4176272;23;20078;-77
2022/01/22 08:05:52;;;;;;;8.45;2.13;;;6.50;99.90;;;;;;4971390;28;20039;-78
2022/01/22 08:12:03;;;;;;;6.20;1.70;;;6.40;99.90;;;;;;4972629;28;20042;-78
2022/01/22 08:14:47;;;;;;;7.25;2.22;;;6.50;99.90;;;;;;4978665;28;20539;-78
2022/01/22 08:18:12;;;;;;;6.10;1.85;;;6.50;99.90;;;;;;4975752;28;20042;-78
2022/01/22 08:41:11;;;;;;;8.15;2.00;;;6.50;99.90;;;;;;4967769;28;20044;-77
2022/01/22 08:43:36;;;;;;;11.05;2.72;;;6.40;99.90;;;;;;4935374;29;20050;-78
2022/01/22 08:46:03;;;;;;;9.38;2.15;;;6.40;99.90;;;;;;4935914;29;20577;-78
2022/01/22 08:48:29;;;;;;;7.97;2.70;;;6.40;99.90;;;;;;4928362;29;20050;-79
2022/01/22 08:50:55;;;;;;;9.30;2.15;;;6.40;99.90;;;;;;4934965;29;20039;-78
2022/01/22 08:53:21;;;;;;;10.40;2.50;;;6.50;99.90;;;;;;4946565;28;20093;-78
2022/01/22 08:55:47;;;;;;;13.55;4.80;;;6.50;99.90;;;;;;4939969;28;20047;-78
2022/01/22 08:58:13;;;;;;;5.25;2.30;;;6.50;99.90;;;;;;4929125;29;20031;-78
2022/01/22 09:00:39;;;;;;;50.13;34.17;;;6.50;99.90;;;;;;4925327;29;20043;-78
2022/01/22 09:03:06;;;;;;;10.00;4.32;;;6.50;99.90;;;;;;4937930;29;20090;-78
2022/01/22 09:05:35;;;;;;;25.33;13.73;;;6.50;99.90;;;;;;4932299;29;20039;-78
2022/01/22 09:08:04;;;;;;;19.58;7.82;;;6.50;99.90;;;;;;4928370;29;20153;-78
2022/01/22 09:10:30;;;;;;;13.23;5.43;;;6.60;99.90;;;;;;4937683;29;20039;-78
2022/01/22 09:13:03;;;;;;;13.18;3.30;;;6.60;99.90;;;;;;4931333;28;20126;-78
2022/01/22 09:15:35;;;;;;;11.45;6.05;;;6.60;99.90;;;;;;4921285;28;20046;-78
2022/01/22 09:22:33;;;;;;;16.55;6.38;;;6.50;99.90;;;;;;4948501;29;20038;-78
2022/01/22 09:25:15;;;;;;;12.60;3.50;;;6.50;99.90;;;;;;4932772;29;20050;-78
2022/01/22 09:28:48;;;;;;;11.38;3.58;;;6.50;99.90;;;;;;4954994;23;20097;-78
2022/01/22 09:31:46;;;;;;;16.30;4.70;;;6.50;99.90;;;;;;4943571;29;20421;-78
2022/01/22 09:37:47;;;;;;;13.93;4.32;;;6.60;99.90;;;;;;4938790;29;20079;-78
2022/01/22 09:40:13;;;;;;;9.38;4.20;;;6.50;99.90;;;;;;4932936;29;20064;-78
2022/01/22 09:42:40;;;;;;;17.35;3.95;;;6.60;99.90;;;;;;4933606;28;20468;-78
2022/01/22 09:45:10;;;;;;;13.65;4.82;;;6.60;99.90;;;;;;4932288;29;20039;-77
2022/01/22 09:47:38;;;;;;;15.07;4.47;;;6.60;99.90;;;;;;4948854;28;20082;-78
2022/01/22 09:50:05;;;;;;;17.27;4.50;;;6.70;99.90;;;;;;4946019;28;20130;-77
2022/01/22 09:52:31;;;;;;;14.50;5.25;;;6.70;99.90;;;;;;4937242;28;20035;-78
2022/01/22 09:54:57;;;;;;;14.38;3.67;;;6.70;99.90;;;;;;4931618;28;20516;-77
2022/01/22 09:57:25;;;;;;;14.38;3.45;;;6.70;99.90;;;;;;4937356;29;20078;-78
2022/01/22 09:59:50;;;;;;;13.13;6.25;;;6.70;99.90;;;;;;4951708;28;20055;-77
2022/01/22 10:02:19;;;;;;;17.63;3.90;;;6.60;99.90;;;;;;4917840;29;20042;-78
2022/01/22 10:04:52;;;;;;;21.52;4.20;;;6.60;99.90;;;;;;4936490;29;20131;-77
2022/01/22 10:07:23;;;;;;;18.13;4.00;;;6.60;99.90;;;;;;4951272;28;20039;-79
2022/01/22 10:09:58;;;;;;;94.18;42.78;;;6.70;99.90;;;;;;4939495;29;20058;-79
2022/01/22 10:12:54;;;;;;;24.08;7.70;;;6.70;99.90;;;;;;4944139;28;20520;-79
2022/01/22 10:15:21;;;;;;;18.48;4.13;;;6.70;99.90;;;;;;4899200;28;20047;-79
2022/01/22 10:17:59;;;;;;;18.70;5.63;;;6.70;99.90;;;;;;4907497;29;20070;-77
2022/01/22 10:20:28;;;;;;;18.05;8.77;;;6.70;99.90;;;;;;4930352;28;20042;-78
2022/01/22 10:22:55;;;;;;;13.85;4.70;;;6.80;99.90;;;;;;4932330;28;20089;-79
2022/01/22 10:25:24;;;;;;;15.23;3.95;;;6.80;99.90;;;;;;4917676;28;20049;-78
2022/01/22 10:30:34;;;;;;;29.45;10.93;;;6.90;99.90;;;;;;3355929;23;20050;-75
2022/01/22 10:33:18;;;;;;;16.92;4.95;;;6.90;99.90;;;;;;4952207;28;20031;-75
2022/01/22 10:35:43;;;;;;;23.27;4.63;;;6.90;99.90;;;;;;4967269;28;20045;-74
2022/01/22 10:38:10;;;;;;;16.60;4.80;;;6.90;99.90;;;;;;4973848;28;20042;-73
2022/01/22 10:40:38;;;;;;;16.92;4.20;;;7.00;99.90;;;;;;4948384;28;20051;-73
2022/01/22 10:43:16;;;;;;;17.27;4.45;;;7.00;99.90;;;;;;4955691;28;20121;-73
2022/01/22 10:46:07;;;;;;;14.38;3.75;;;7.00;99.90;;;;;;4955501;28;20452;-73
2022/01/22 10:48:34;;;;;;;15.23;3.60;;;7.00;99.90;;;;;;4972324;28;20485;-73
2022/01/22 10:51:05;;;;;;;15.20;3.90;;;7.00;99.90;;;;;;4960309;28;20038;-73
2022/01/22 10:53:59;;;;;;;14.70;3.25;;;7.00;99.90;;;;;;4956287;28;20057;-73
2022/01/22 10:56:27;;;;;;;14.93;3.50;;;7.10;99.90;;;;;;4963216;28;20070;-73
2022/01/22 10:59:11;;;;;;;16.35;3.55;;;7.10;99.90;;;;;;4956361;28;20070;-73
2022/01/22 11:01:43;;;;;;;15.73;4.10;;;7.10;99.90;;;;;;4956664;28;20105;-73
2022/01/22 11:04:15;;;;;;;17.25;3.47;;;7.10;99.90;;;;;;4962901;28;20074;-73
2022/01/22 11:06:49;;;;;;;19.30;3.30;;;7.10;99.90;;;;;;4956832;28;20043;-73
2022/01/22 11:09:14;;;;;;;18.50;4.03;;;7.10;99.90;;;;;;4955533;28;20043;-73
2022/01/22 11:11:41;;;;;;;17.20;3.58;;;7.10;99.90;;;;;;4957776;28;20034;-73
2022/01/22 11:14:09;;;;;;;15.43;3.80;;;7.10;99.90;;;;;;4970771;28;20051;-73
2022/01/22 11:16:38;;;;;;;14.45;4.07;;;7.10;99.90;;;;;;4956937;28;20074;-73
2022/01/22 11:19:04;;;;;;;14.82;3.75;;;7.10;99.90;;;;;;4956159;28;20050;-73
2022/01/22 11:21:31;;;;;;;23.60;3.85;;;7.10;99.90;;;;;;4960814;28;20138;-72
2022/01/22 11:23:58;;;;;;;17.10;4.35;;;7.10;99.90;;;;;;4959393;28;20145;-73
2022/01/22 11:26:24;;;;;;;21.77;4.25;;;7.10;99.90;;;;;;4967509;28;20039;-72
2022/01/22 11:28:53;;;;;;;20.90;4.57;;;7.10;99.90;;;;;;4957088;28;20042;-73
2022/01/22 11:31:23;;;;;;;23.55;4.63;;;7.10;99.90;;;;;;4965806;28;20042;-73
2022/01/22 11:33:51;;;;;;;14.82;4.60;;;7.10;99.90;;;;;;4936496;28;20721;-74
2022/01/22 11:36:28;;;;;;;23.73;4.65;;;7.10;99.90;;;;;;4961321;28;20050;-74
2022/01/22 11:38:58;;;;;;;22.52;4.53;;;7.10;99.90;;;;;;4944903;28;20043;-75
2022/01/22 11:41:24;;;;;;;19.70;4.95;;;7.10;99.90;;;;;;4949056;28;20070;-72
2022/01/22 11:46:36;;;;;;;21.58;5.00;;;7.10;99.90;;;;;;4948729;28;20177;-74
2022/01/22 11:49:22;;;;;;;20.83;5.10;;;7.00;99.90;;;;;;4946898;28;20485;-74
2022/01/22 11:51:50;;;;;;;22.55;4.93;;;7.00;99.90;;;;;;4944528;28;20082;-74
2022/01/22 11:54:17;;;;;;;15.60;5.15;;;7.00;99.90;;;;;;4948665;28;20484;-74
2022/01/22 11:56:54;;;;;;;25.52;5.75;;;7.00;99.90;;;;;;4950230;28;20506;-73
2022/01/22 11:59:25;;;;;;;20.30;5.63;;;7.00;99.90;;;;;;4964231;28;20050;-74
2022/01/22 12:02:03;;;;;;;24.92;5.85;;;7.00;99.90;;;;;;4941680;28;20501;-75
2022/01/22 12:04:46;;;;;;;22.52;6.05;;;7.00;99.90;;;;;;4944018;28;20110;-73
2022/01/22 12:07:15;;;;;;;23.63;5.78;;;7.00;99.90;;;;;;4950331;28;20054;-73
2022/01/22 12:15:13;;;;;;;21.98;6.72;;;7.00;99.90;;;;;;4945914;28;20038;-72
2022/01/22 12:17:49;;;;;;;26.60;8.38;;;7.10;99.90;;;;;;4949469;28;20077;-74
2022/01/22 12:23:10;;;;;;;23.38;6.53;;;7.10;99.90;;;;;;4968912;28;20378;-73
2022/01/22 12:25:35;;;;;;;21.40;6.68;;;7.10;99.90;;;;;;4972333;28;20547;-72
2022/01/22 12:28:03;;;;;;;19.25;6.75;;;7.10;99.90;;;;;;4956089;28;20062;-72
2022/01/22 12:30:43;;;;;;;29.85;15.68;;;7.00;99.90;;;;;;4955723;28;20133;-72
2022/01/22 12:33:13;;;;;;;21.05;6.72;;;7.00;99.90;;;;;;4949947;28;20039;-73
2022/01/22 12:35:47;;;;;;;28.27;13.27;;;7.00;99.90;;;;;;4947383;28;20477;-72
2022/01/22 12:38:24;;;;;;;29.83;18.67;;;7.00;99.90;;;;;;4950165;28;20118;-72
2022/01/22 12:40:55;;;;;;;21.10;9.82;;;7.10;99.90;;;;;;4964105;28;20417;-72
2022/01/22 12:43:29;;;;;;;32.90;21.40;;;7.20;99.90;;;;;;4949412;28;20121;-72
2022/01/22 12:45:58;;;;;;;23.33;9.75;;;7.20;99.90;;;;;;4949758;28;20692;-72
2022/01/22 12:48:29;;;;;;;20.15;6.82;;;7.20;99.90;;;;;;4949795;28;20049;-72
2022/01/22 12:51:03;;;;;;;18.67;6.13;;;7.20;99.90;;;;;;4936209;28;20050;-73
2022/01/22 12:53:30;;;;;;;18.88;5.43;;;7.20;99.90;;;;;;4963327;28;20664;-73
2022/01/22 12:58:31;;;;;;;21.75;10.32;;;7.30;99.90;;;;;;4947287;28;20054;-73
2022/01/22 13:01:12;;;;;;;23.98;10.65;;;7.30;99.90;;;;;;4965093;28;20481;-73
2022/01/22 13:03:40;;;;;;;13.85;4.65;;;7.40;99.90;;;;;;4951834;28;20507;-72
2022/01/22 13:06:06;;;;;;;21.85;5.60;;;7.40;99.90;;;;;;4950328;28;20054;-72
2022/01/22 13:08:33;;;;;;;23.35;5.22;;;7.40;99.90;;;;;;4950115;28;20035;-73
2022/01/22 13:11:01;;;;;;;15.95;5.38;;;7.40;99.90;;;;;;4949300;28;20532;-72
2022/01/22 13:13:28;;;;;;;13.13;5.47;;;7.50;99.90;;;;;;4954641;28;20041;-72
2022/01/22 13:16:09;;;;;;;16.48;5.00;;;7.50;99.90;;;;;;4948378;28;20071;-72
2022/01/22 13:18:43;;;;;;;21.17;4.28;;;7.50;99.90;;;;;;4970714;28;20042;-73
2022/01/22 13:21:11;;;;;;;18.30;4.72;;;7.50;99.90;;;;;;4945627;28;20508;-73
2022/01/22 13:23:37;;;;;;;15.65;3.90;;;7.50;99.90;;;;;;4965156;28;20520;-73
2022/01/22 13:26:04;;;;;;;20.65;6.65;;;7.50;99.90;;;;;;4948977;28;20568;-72
2022/01/22 13:28:35;;;;;;;77.05;43.88;;;7.50;99.90;;;;;;4963194;28;20043;-73
2022/01/22 13:31:11;;;;;;;60.40;32.47;;;7.50;99.90;;;;;;4946739;28;20054;-73
2022/01/22 13:33:45;;;;;;;172.13;94.78;;;7.50;99.90;;;;;;4948735;28;20501;-72
2022/01/22 13:49:45;;;;;;;32.70;17.05;;;7.50;99.90;;;;;;4954957;28;20057;-73
2022/01/22 13:52:16;;;;;;;87.20;49.95;;;7.50;99.90;;;;;;4966547;28;20508;-73
2022/01/22 13:55:00;;;;;;;60.15;36.63;;;7.40;99.90;;;;;;4972757;28;20050;-73
2022/01/22 13:57:29;;;;;;;32.42;15.23;;;7.40;99.90;;;;;;4957508;28;20038;-73
2022/01/22 13:59:57;;;;;;;71.60;47.03;;;7.40;99.90;;;;;;4957501;28;20133;-73
2022/01/22 14:05:15;;;;;;;13.45;3.70;;;7.40;99.90;;;;;;4961983;28;20042;-73
2022/01/22 14:07:47;;;;;;;15.05;7.53;;;7.30;99.90;;;;;;4970297;28;20046;-73
2022/01/22 14:10:16;;;;;;;21.55;10.38;;;7.30;99.90;;;;;;4956344;28;20445;-73
2022/01/22 14:12:47;;;;;;;25.00;13.65;;;7.30;99.90;;;;;;4963348;28;20053;-73
2022/01/22 14:15:23;;;;;;;23.20;11.52;;;7.30;99.90;;;;;;4966708;28;20042;-73
2022/01/22 14:17:55;;;;;;;12.95;4.65;;;7.30;99.90;;;;;;4938272;29;20129;-73
2022/01/22 14:20:28;;;;;;;17.55;5.30;;;7.20;99.90;;;;;;4955235;28;20051;-73
2022/01/22 14:23:04;;;;;;;15.77;5.13;;;7.30;99.90;;;;;;4939464;28;21415;-74
2022/01/22 14:25:36;;;;;;;13.93;4.38;;;7.30;99.90;;;;;;4956604;28;20132;-74
2022/01/22 14:28:06;;;;;;;16.40;7.40;;;7.30;99.90;;;;;;4956785;28;20035;-74
2022/01/22 14:30:46;;;;;;;15.48;12.02;;;7.30;99.90;;;;;;4954928;28;20493;-74
2022/01/22 14:33:17;;;;;;;27.42;9.52;;;7.30;99.90;;;;;;4954824;28;20513;-74
2022/01/22 14:35:45;;;;;;;15.90;2.78;;;7.20;99.90;;;;;;4956938;28;20046;-74
2022/01/22 14:38:34;;;;;;;15.48;2.60;;;7.20;99.90;;;;;;4960165;28;20046;-74
2022/01/22 14:44:06;;;;;;;13.23;3.28;;;7.20;99.90;;;;;;4970300;28;20477;-74
2022/01/22 14:46:42;;;;;;;14.80;3.60;;;7.20;99.90;;;;;;4956723;28;20078;-74
2022/01/22 14:49:08;;;;;;;12.13;3.83;;;7.10;99.90;;;;;;4955760;28;20054;-74
2022/01/22 14:51:34;;;;;;;14.82;3.30;;;7.20;99.90;;;;;;4956426;28;20042;-73
2022/01/22 14:53:59;;;;;;;12.02;3.00;;;7.20;99.90;;;;;;4956759;28;20047;-73
2022/01/22 14:56:25;;;;;;;12.15;2.92;;;7.10;99.90;;;;;;4956377;28;20524;-73
2022/01/22 14:58:50;;;;;;;11.18;2.60;;;7.10;99.90;;;;;;4954819;28;20058;-73
2022/01/22 15:01:17;;;;;;;10.93;2.10;;;7.10;99.90;;;;;;4972424;28;20066;-73
2022/01/22 15:03:42;;;;;;;12.65;3.30;;;7.10;99.90;;;;;;4962452;28;20497;-72
2022/01/22 15:06:08;;;;;;;12.48;3.78;;;7.10;99.90;;;;;;4977295;28;20086;-72
2022/01/22 15:08:34;;;;;;;10.77;2.38;;;7.10;99.90;;;;;;4958249;28;20516;-73
2022/01/22 15:10:59;;;;;;;9.88;2.35;;;7.10;99.90;;;;;;4965750;28;20122;-72
2022/01/22 15:13:25;;;;;;;8.57;2.00;;;7.10;99.90;;;;;;4956484;28;20078;-72
2022/01/22 15:15:58;;;;;;;11.75;2.25;;;7.10;99.90;;;;;;4953013;28;20047;-74
2022/01/22 15:21:09;;;;;;;10.35;1.75;;;7.10;99.90;;;;;;4939452;28;20446;-72
2022/01/22 15:23:35;;;;;;;9.18;1.63;;;7.10;99.90;;;;;;4965239;28;20129;-72
2022/01/22 15:26:00;;;;;;;36.78;16.27;;;7.10;99.90;;;;;;4940209;28;20497;-73
2022/01/22 15:28:31;;;;;;;68.45;32.28;;;7.00;99.90;;;;;;4944299;28;20047;-73
2022/01/22 15:30:58;;;;;;;17.70;6.43;;;7.00;99.90;;;;;;4956057;28;20134;-73
2022/01/22 15:33:36;;;;;;;51.83;32.22;;;7.00;99.90;;;;;;4940340;28;20560;-73
2022/01/22 15:36:02;;;;;;;51.10;36.22;;;7.00;99.90;;;;;;4954909;28;20042;-72
2022/01/22 15:38:28;;;;;;;13.50;6.28;;;7.00;99.90;;;;;;4936068;28;21024;-73
2022/01/22 15:40:54;;;;;;;30.08;22.13;;;6.90;99.90;;;;;;4962024;28;20049;-72
2022/01/22 15:43:19;;;;;;;39.75;22.23;;;6.90;99.90;;;;;;4946848;28;20382;-72
2022/01/22 15:45:46;;;;;;;19.30;9.57;;;6.90;99.90;;;;;;4946985;28;20051;-73
2022/01/22 15:48:12;;;;;;;16.50;10.13;;;6.90;99.90;;;;;;4945364;28;20053;-73
2022/01/22 15:50:40;;;;;;;11.32;3.50;;;6.90;99.90;;;;;;4947997;28;20039;-73
2022/01/22 15:53:06;;;;;;;21.25;14.13;;;6.90;99.90;;;;;;4945837;28;20491;-72
2022/01/22 15:55:31;;;;;;;5.88;1.63;;;6.90;99.90;;;;;;4947965;28;20133;-73
2022/01/22 15:57:57;;;;;;;11.35;5.88;;;6.80;99.90;;;;;;4950070;28;20039;-74
2022/01/22 16:00:24;;;;;;;23.30;12.60;;;6.80;99.90;;;;;;4947835;28;20505;-73
2022/01/22 16:02:52;;;;;;;9.07;4.47;;;6.80;99.90;;;;;;4945918;28;20058;-73
2022/01/22 16:05:24;;;;;;;10.52;2.17;;;6.80;99.90;;;;;;4949687;28;20035;-73
2022/01/22 16:07:50;;;;;;;9.15;2.70;;;6.80;99.90;;;;;;4947149;28;20050;-72
2022/01/22 16:10:16;;;;;;;7.75;1.40;;;6.80;99.90;;;;;;4948089;28;20051;-71
2022/01/22 16:12:42;;;;;;;7.72;1.52;;;6.70;99.90;;;;;;4950652;28;20027;-73
2022/01/22 16:15:08;;;;;;;8.70;2.60;;;6.70;99.90;;;;;;4947588;28;20042;-72
2022/01/22 16:17:34;;;;;;;10.82;1.90;;;6.60;99.90;;;;;;4935723;28;20051;-73
2022/01/22 16:20:01;;;;;;;8.35;1.60;;;6.60;99.90;;;;;;4950255;28;20054;-72
2022/01/22 16:22:27;;;;;;;13.30;1.60;;;6.60;99.90;;;;;;4962420;28;20486;-73
2022/01/22 16:24:58;;;;;;;13.93;1.77;;;6.50;99.90;;;;;;4961671;28;20039;-72
2022/01/22 16:27:25;;;;;;;12.80;1.90;;;6.50;99.90;;;;;;4953956;28;21727;-73
2022/01/22 16:29:54;;;;;;;129.68;71.90;;;6.60;99.90;;;;;;4963307;28;20082;-73
2022/01/22 16:32:20;;;;;;;158.52;87.60;;;6.50;99.90;;;;;;4962026;28;20063;-72
2022/01/22 16:34:46;;;;;;;50.60;26.23;;;6.50;99.90;;;;;;4949559;28;20062;-72
2022/01/22 16:37:12;;;;;;;12.68;4.32;;;6.50;99.90;;;;;;4968648;28;20046;-72
2022/01/22 16:39:39;;;;;;;11.52;3.47;;;6.60;99.90;;;;;;4950459;28;20039;-72
2022/01/22 16:42:08;;;;;;;16.95;4.07;;;6.60;99.90;;;;;;4954357;28;20042;-81
2022/01/22 16:44:43;;;;;;;11.10;2.92;;;6.60;99.90;;;;;;4950675;28;20042;-72
2022/01/22 16:55:46;;;;;;;16.70;6.78;;;6.60;99.90;;;;;;4955430;28;20085;-72
2022/01/22 16:58:09;;;;;;;16.55;10.90;;;6.60;99.90;;;;;;4956867;28;20484;-71
2022/01/22 17:00:37;;;;;;;13.60;8.50;;;6.60;99.90;;;;;;4975836;28;20386;-71
2022/01/22 17:03:07;;;;;;;11.20;7.00;;;6.60;99.90;;;;;;4963277;28;20418;-71
2022/01/22 17:05:34;;;;;;;16.50;8.15;;;6.60;99.90;;;;;;4964692;28;20482;-71
2022/01/22 17:08:25;;;;;;;9.68;5.80;;;6.60;99.90;;;;;;4951317;28;20122;-72
2022/01/22 17:16:10;;;;;;;6.93;1.90;;;6.50;99.90;;;;;;4950614;28;20416;-72
2022/01/22 17:18:36;;;;;;;4.90;1.80;;;6.50;99.90;;;;;;4952340;28;20050;-72
2022/01/22 17:21:02;;;;;;;7.70;1.65;;;6.40;99.90;;;;;;4956509;28;20046;-72
2022/01/22 17:23:27;;;;;;;6.72;1.88;;;6.40;99.90;;;;;;4947698;28;20039;-72
2022/01/22 17:25:53;;;;;;;6.15;1.85;;;6.30;99.90;;;;;;4956708;28;20081;-72
2022/01/22 17:28:19;;;;;;;10.60;2.17;;;6.40;99.90;;;;;;4971192;28;20045;-72
2022/01/22 17:30:45;;;;;;;4.93;1.80;;;6.40;99.90;;;;;;4949964;28;20167;-72
2022/01/22 17:33:10;;;;;;;6.90;2.72;;;6.40;99.90;;;;;;4953219;28;20039;-73
2022/01/22 17:35:38;;;;;;;8.52;2.42;;;6.30;99.90;;;;;;4931060;28;20034;-72
2022/01/22 17:38:06;;;;;;;7.38;2.30;;;6.40;99.90;;;;;;4960812;28;20409;-72
2022/01/22 17:40:32;;;;;;;8.75;2.55;;;6.30;99.90;;;;;;4945816;28;20046;-73
2022/01/22 17:42:58;;;;;;;6.93;2.53;;;6.30;99.90;;;;;;4969217;28;20425;-72
2022/01/22 17:45:25;;;;;;;7.88;2.92;;;6.30;99.90;;;;;;4934062;28;20093;-72
2022/01/22 17:47:51;;;;;;;6.90;2.55;;;6.40;99.90;;;;;;4950067;28;20401;-73
2022/01/22 17:50:17;;;;;;;13.98;2.35;;;6.30;99.90;;;;;;4949649;28;20047;-73
2022/01/22 17:52:42;;;;;;;9.73;2.50;;;6.40;99.90;;;;;;4950166;28;20777;-72
2022/01/22 17:55:08;;;;;;;9.43;2.38;;;6.30;99.90;;;;;;4948598;28;20046;-72
2022/01/22 17:57:34;;;;;;;12.85;3.17;;;6.30;99.90;;;;;;4948322;28;20370;-72
2022/01/22 18:00:00;;;;;;;9.95;3.13;;;6.30;99.90;;;;;;4947284;28;20061;-72
2022/01/22 18:02:28;;;;;;;9.70;3.45;;;6.40;99.90;;;;;;4967449;28;20038;-73
2022/01/22 18:04:59;;;;;;;7.15;2.85;;;6.30;99.90;;;;;;4966837;28;20049;-73
2022/01/22 18:07:29;;;;;;;7.97;3.83;;;6.30;99.90;;;;;;4949384;28;20043;-73
2022/01/22 18:09:57;;;;;;;7.40;2.80;;;6.40;99.90;;;;;;4964251;28;20116;-73
2022/01/22 18:12:23;;;;;;;11.27;4.90;;;6.30;99.90;;;;;;4931331;28;20042;-73
2022/01/22 18:14:49;;;;;;;9.70;2.60;;;6.30;99.90;;;;;;4946311;28;20413;-73
2022/01/22 18:17:15;;;;;;;9.40;2.33;;;6.30;99.90;;;;;;4947115;28;20063;-73
2022/01/22 18:19:41;;;;;;;6.72;2.60;;;6.30;99.90;;;;;;4948890;28;20070;-73
2022/01/22 18:22:07;;;;;;;11.38;2.65;;;6.30;99.90;;;;;;4965756;28;20464;-73
2022/01/22 18:24:33;;;;;;;8.68;2.85;;;6.20;99.90;;;;;;4932397;28;20516;-73
2022/01/22 18:26:58;;;;;;;4.90;2.40;;;6.30;99.90;;;;;;4944686;28;20047;-72
2022/01/22 18:29:24;;;;;;;6.70;2.80;;;6.20;99.90;;;;;;4946310;28;20038;-72
2022/01/22 18:31:53;;;;;;;9.55;3.20;;;6.20;99.90;;;;;;4965173;28;20035;-73
2022/01/22 18:34:20;;;;;;;9.75;3.17;;;6.20;99.90;;;;;;4950773;28;20074;-72
2022/01/22 18:36:47;;;;;;;7.63;3.40;;;6.20;99.90;;;;;;4964845;28;20105;-73